sensor_id;sensor_type;location;lat;lon;timestamp;pressure;altitude;pressure_sealevel;temperature;humidity
15932;BME280;8065;49.520;11.284;2022-12-18T00:01:50;98774.81;;;-4.08;70.05
15932;BME280;8065;49.520;11.284;2022-12-18T00:04:21;98777.25;;;-4.00;70.59
15932;BME280;8065;49.520;11.284;2022-12-18T00:06:48;98793.13;;;-4.16;70.54
15932;BME280;8065;49.520;11.284;2022-12-18T00:09:15;98789.66;;;-4.30;70.93
15932;BME280;8065;49.520;11.284;2022-12-18T00:11:42;98796.88;;;-4.53;71.90
15932;BME280;8065;49.520;11.284;2022-12-18T00:14:11;98791.13;;;-4.49;72.25
15932;BME280;8065;49.520;11.284;2022-12-18T00:16:38;98795.94;;;-4.46;72.31
15932;BME280;8065;49.520;11.284;2022-12-18T00:19:05;98787.66;;;-4.35;71.75
15932;BME280;8065;49.520;11.284;2022-12-18T00:21:33;98788.16;;;-4.46;71.92
15932;BME280;8065;49.520;11.284;2022-12-18T00:24:00;98789.47;;;-4.29;71.60
15932;BME280;8065;49.520;11.284;2022-12-18T00:26:28;98789.47;;;-4.29;71.25
15932;BME280;8065;49.520;11.284;2022-12-18T00:28:58;98793.50;;;-4.19;71.02
15932;BME280;8065;49.520;11.284;2022-12-18T00:31:26;98785.94;;;-4.14;70.90
15932;BME280;8065;49.520;11.284;2022-12-18T00:33:54;98785.41;;;-4.03;70.23
15932;BME280;8065;49.520;11.284;2022-12-18T00:36:23;98780.06;;;-3.95;69.69
15932;BME280;8065;49.520;11.284;2022-12-18T00:38:50;98785.34;;;-4.16;70.73
15932;BME280;8065;49.520;11.284;2022-12-18T00:41:17;98790.91;;;-4.54;71.30
15932;BME280;8065;49.520;11.284;2022-12-18T00:44:05;98789.25;;;-4.62;71.52
15932;BME280;8065;49.520;11.284;2022-12-18T00:46:33;98791.28;;;-4.57;71.73
15932;BME280;8065;49.520;11.284;2022-12-18T00:48:59;98796.47;;;-4.57;71.47
15932;BME280;8065;49.520;11.284;2022-12-18T00:51:26;98798.47;;;-4.80;71.43
15932;BME280;8065;49.520;11.284;2022-12-18T00:53:53;98795.75;;;-4.72;70.92
15932;BME280;8065;49.520;11.284;2022-12-18T00:56:21;98790.47;;;-4.57;71.32
15932;BME280;8065;49.520;11.284;2022-12-18T00:58:47;98788.53;;;-4.49;70.19
15932;BME280;8065;49.520;11.284;2022-12-18T01:01:14;98788.78;;;-4.93;71.55
15932;BME280;8065;49.520;11.284;2022-12-18T01:03:42;98794.69;;;-4.78;71.78
15932;BME280;8065;49.520;11.284;2022-12-18T01:06:12;98797.53;;;-4.73;71.59
15932;BME280;8065;49.520;11.284;2022-12-18T01:08:39;98797.22;;;-4.63;70.95
15932;BME280;8065;49.520;11.284;2022-12-18T01:11:08;98796.94;;;-4.47;70.53
15932;BME280;8065;49.520;11.284;2022-12-18T01:13:35;98794.75;;;-4.71;70.17
15932;BME280;8065;49.520;11.284;2022-12-18T01:16:01;98785.38;;;-4.72;71.16
15932;BME280;8065;49.520;11.284;2022-12-18T01:18:28;98793.78;;;-4.91;71.13
15932;BME280;8065;49.520;11.284;2022-12-18T01:20:55;98803.78;;;-4.88;71.72
15932;BME280;8065;49.520;11.284;2022-12-18T01:23:22;98820.13;;;-4.88;71.86
15932;BME280;8065;49.520;11.284;2022-12-18T01:25:48;98831.72;;;-4.84;71.64
15932;BME280;8065;49.520;11.284;2022-12-18T01:28:15;98832.28;;;-4.67;71.10
15932;BME280;8065;49.520;11.284;2022-12-18T01:30:41;98827.91;;;-4.67;71.27
15932;BME280;8065;49.520;11.284;2022-12-18T01:33:08;98824.75;;;-5.05;73.19
15932;BME280;8065;49.520;11.284;2022-12-18T01:35:40;98830.19;;;-5.00;73.16
15932;BME280;8065;49.520;11.284;2022-12-18T01:38:07;98832.69;;;-5.06;74.14
15932;BME280;8065;49.520;11.284;2022-12-18T01:40:34;98831.16;;;-5.22;75.74
15932;BME280;8065;49.520;11.284;2022-12-18T01:43:01;98834.59;;;-5.15;76.17
15932;BME280;8065;49.520;11.284;2022-12-18T01:45:29;98829.78;;;-5.18;75.91
15932;BME280;8065;49.520;11.284;2022-12-18T01:47:57;98828.38;;;-5.20;76.91
15932;BME280;8065;49.520;11.284;2022-12-18T01:50:29;98836.09;;;-5.27;76.48
15932;BME280;8065;49.520;11.284;2022-12-18T01:52:59;98837.75;;;-5.55;78.84
15932;BME280;8065;49.520;11.284;2022-12-18T01:55:29;98828.63;;;-5.51;79.04
15932;BME280;8065;49.520;11.284;2022-12-18T01:57:58;98837.22;;;-5.80;79.50
15932;BME280;8065;49.520;11.284;2022-12-18T02:00:26;98845.16;;;-5.67;79.54
15932;BME280;8065;49.520;11.284;2022-12-18T02:02:54;98841.50;;;-5.87;80.86
15932;BME280;8065;49.520;11.284;2022-12-18T02:05:28;98849.91;;;-6.00;82.72
15932;BME280;8065;49.520;11.284;2022-12-18T02:08:04;98848.53;;;-5.52;80.54
15932;BME280;8065;49.520;11.284;2022-12-18T02:10:39;98849.84;;;-6.07;83.28
15932;BME280;8065;49.520;11.284;2022-12-18T02:13:13;98844.53;;;-5.84;83.10
15932;BME280;8065;49.520;11.284;2022-12-18T02:15:46;98845.06;;;-5.74;82.18
15932;BME280;8065;49.520;11.284;2022-12-18T02:18:19;98846.59;;;-5.65;82.54
15932;BME280;8065;49.520;11.284;2022-12-18T02:20:49;98839.84;;;-6.24;85.00
15932;BME280;8065;49.520;11.284;2022-12-18T02:23:24;98833.56;;;-5.71;84.23
15932;BME280;8065;49.520;11.284;2022-12-18T02:26:07;98823.06;;;-5.99;85.12
15932;BME280;8065;49.520;11.284;2022-12-18T02:28:42;98822.19;;;-6.06;86.17
15932;BME280;8065;49.520;11.284;2022-12-18T02:31:14;98817.81;;;-6.20;87.02
15932;BME280;8065;49.520;11.284;2022-12-18T02:33:43;98826.47;;;-6.13;87.77
15932;BME280;8065;49.520;11.284;2022-12-18T02:36:11;98823.84;;;-5.84;87.13
15932;BME280;8065;49.520;11.284;2022-12-18T02:38:41;98819.91;;;-5.80;86.70
15932;BME280;8065;49.520;11.284;2022-12-18T02:41:10;98830.16;;;-5.57;86.84
15932;BME280;8065;49.520;11.284;2022-12-18T02:43:37;98824.81;;;-5.55;86.67
15932;BME280;8065;49.520;11.284;2022-12-18T02:46:29;98834.47;;;-5.28;85.63
15932;BME280;8065;49.520;11.284;2022-12-18T02:49:05;98844.28;;;-5.59;86.25
15932;BME280;8065;49.520;11.284;2022-12-18T02:51:41;98851.31;;;-5.53;86.46
15932;BME280;8065;49.520;11.284;2022-12-18T02:54:20;98853.84;;;-5.24;85.36
15932;BME280;8065;49.520;11.284;2022-12-18T02:56:52;98863.47;;;-5.18;84.09
15932;BME280;8065;49.520;11.284;2022-12-18T02:59:24;98863.78;;;-5.42;85.99
15932;BME280;8065;49.520;11.284;2022-12-18T03:01:58;98878.34;;;-5.26;85.38
15932;BME280;8065;49.520;11.284;2022-12-18T03:04:27;98864.97;;;-5.45;85.88
15932;BME280;8065;49.520;11.284;2022-12-18T03:06:58;98858.84;;;-5.22;85.02
15932;BME280;8065;49.520;11.284;2022-12-18T03:09:29;98863.06;;;-5.36;86.23
15932;BME280;8065;49.520;11.284;2022-12-18T03:12:02;98859.75;;;-5.30;85.48
15932;BME280;8065;49.520;11.284;2022-12-18T03:14:50;98863.16;;;-5.08;84.93
15932;BME280;8065;49.520;11.284;2022-12-18T03:17:20;98858.06;;;-5.02;85.10
15932;BME280;8065;49.520;11.284;2022-12-18T03:19:49;98851.16;;;-4.95;84.34
15932;BME280;8065;49.520;11.284;2022-12-18T03:22:18;98849.94;;;-4.77;83.20
15932;BME280;8065;49.520;11.284;2022-12-18T03:24:46;98836.72;;;-5.04;83.71
15932;BME280;8065;49.520;11.284;2022-12-18T03:27:18;98843.25;;;-4.86;82.13
15932;BME280;8065;49.520;11.284;2022-12-18T03:29:48;98840.41;;;-4.70;82.64
15932;BME280;8065;49.520;11.284;2022-12-18T03:32:21;98850.09;;;-5.00;83.68
15932;BME280;8065;49.520;11.284;2022-12-18T03:34:50;98852.28;;;-4.61;82.42
15932;BME280;8065;49.520;11.284;2022-12-18T03:37:18;98852.16;;;-4.74;82.38
15932;BME280;8065;49.520;11.284;2022-12-18T03:39:44;98851.63;;;-4.42;81.19
15932;BME280;8065;49.520;11.284;2022-12-18T03:42:17;98862.06;;;-4.35;80.47
15932;BME280;8065;49.520;11.284;2022-12-18T03:44:54;98862.63;;;-4.61;80.47
15932;BME280;8065;49.520;11.284;2022-12-18T03:47:27;98864.13;;;-4.52;80.86
15932;BME280;8065;49.520;11.284;2022-12-18T03:49:59;98866.59;;;-4.44;79.78
15932;BME280;8065;49.520;11.284;2022-12-18T03:52:34;98872.16;;;-4.47;79.81
15932;BME280;8065;49.520;11.284;2022-12-18T03:55:04;98884.38;;;-4.41;79.55
15932;BME280;8065;49.520;11.284;2022-12-18T03:57:33;98878.75;;;-4.44;79.24
15932;BME280;8065;49.520;11.284;2022-12-18T04:00:03;98881.22;;;-4.36;79.01
15932;BME280;8065;49.520;11.284;2022-12-18T04:02:31;98871.22;;;-4.33;78.57
15932;BME280;8065;49.520;11.284;2022-12-18T04:05:03;98876.06;;;-4.30;78.13
15932;BME280;8065;49.520;11.284;2022-12-18T04:07:31;98878.47;;;-4.28;78.40
15932;BME280;8065;49.520;11.284;2022-12-18T04:09:59;98884.00;;;-4.31;77.93
15932;BME280;8065;49.520;11.284;2022-12-18T04:12:29;98885.25;;;-4.27;77.97
15932;BME280;8065;49.520;11.284;2022-12-18T04:14:57;98884.69;;;-4.22;77.22
15932;BME280;8065;49.520;11.284;2022-12-18T04:17:23;98875.31;;;-4.23;76.97
15932;BME280;8065;49.520;11.284;2022-12-18T04:19:50;98880.88;;;-4.26;77.33
15932;BME280;8065;49.520;11.284;2022-12-18T04:22:16;98890.78;;;-4.37;77.76
15932;BME280;8065;49.520;11.284;2022-12-18T04:24:43;98871.22;;;-4.33;78.21
15932;BME280;8065;49.520;11.284;2022-12-18T04:27:09;98880.41;;;-4.37;77.78
15932;BME280;8065;49.520;11.284;2022-12-18T04:29:36;98885.34;;;-4.42;77.93
15932;BME280;8065;49.520;11.284;2022-12-18T04:32:04;98885.31;;;-4.20;78.16
15932;BME280;8065;49.520;11.284;2022-12-18T04:34:30;98892.84;;;-4.25;77.58
15932;BME280;8065;49.520;11.284;2022-12-18T04:36:57;98893.94;;;-4.41;78.20
15932;BME280;8065;49.520;11.284;2022-12-18T04:39:23;98893.13;;;-4.42;78.93
15932;BME280;8065;49.520;11.284;2022-12-18T04:41:50;98897.94;;;-4.39;78.52
15932;BME280;8065;49.520;11.284;2022-12-18T04:44:16;98905.13;;;-4.41;78.01
15932;BME280;8065;49.520;11.284;2022-12-18T04:46:43;98899.38;;;-4.36;78.15
15932;BME280;8065;49.520;11.284;2022-12-18T04:49:10;98902.75;;;-4.36;78.39
15932;BME280;8065;49.520;11.284;2022-12-18T04:51:37;98896.16;;;-4.38;78.49
15932;BME280;8065;49.520;11.284;2022-12-18T04:54:04;98896.53;;;-4.41;79.02
15932;BME280;8065;49.520;11.284;2022-12-18T04:56:31;98905.06;;;-4.47;78.73
15932;BME280;8065;49.520;11.284;2022-12-18T04:58:57;98899.38;;;-4.36;79.18
15932;BME280;8065;49.520;11.284;2022-12-18T05:01:24;98908.31;;;-4.39;78.95
15932;BME280;8065;49.520;11.284;2022-12-18T05:03:51;98889.97;;;-4.37;79.20
15932;BME280;8065;49.520;11.284;2022-12-18T05:06:19;98884.44;;;-4.28;78.55
15932;BME280;8065;49.520;11.284;2022-12-18T05:08:45;98884.44;;;-4.28;78.74
15932;BME280;8065;49.520;11.284;2022-12-18T05:11:14;98891.41;;;-4.35;79.05
15932;BME280;8065;49.520;11.284;2022-12-18T05:13:41;98887.81;;;-4.34;78.73
15932;BME280;8065;49.520;11.284;2022-12-18T05:16:08;98898.66;;;-4.23;79.92
15932;BME280;8065;49.520;11.284;2022-12-18T05:18:36;98900.72;;;-4.40;79.98
15932;BME280;8065;49.520;11.284;2022-12-18T05:21:03;98895.59;;;-4.34;81.07
15932;BME280;8065;49.520;11.284;2022-12-18T05:23:31;98893.44;;;-4.02;78.87
15932;BME280;8065;49.520;11.284;2022-12-18T05:25:59;98899.47;;;-3.95;78.53
15932;BME280;8065;49.520;11.284;2022-12-18T05:28:27;98901.97;;;-4.08;79.55
15932;BME280;8065;49.520;11.284;2022-12-18T05:30:56;98900.84;;;-3.99;79.54
15932;BME280;8065;49.520;11.284;2022-12-18T05:33:24;98907.34;;;-3.82;78.59
15932;BME280;8065;49.520;11.284;2022-12-18T05:35:52;98916.94;;;-3.82;77.79
15932;BME280;8065;49.520;11.284;2022-12-18T05:38:18;98915.31;;;-4.11;80.53
15932;BME280;8065;49.520;11.284;2022-12-18T05:40:47;98902.84;;;-4.22;79.87
15932;BME280;8065;49.520;11.284;2022-12-18T05:43:13;98908.88;;;-4.15;79.45
15932;BME280;8065;49.520;11.284;2022-12-18T05:45:40;98907.16;;;-4.08;79.55
15932;BME280;8065;49.520;11.284;2022-12-18T05:48:08;98907.75;;;-4.06;80.25
15932;BME280;8065;49.520;11.284;2022-12-18T05:50:34;98911.75;;;-4.32;81.18
15932;BME280;8065;49.520;11.284;2022-12-18T05:53:01;98908.78;;;-4.29;80.61
15932;BME280;8065;49.520;11.284;2022-12-18T05:55:28;98901.97;;;-4.08;79.72
15932;BME280;8065;49.520;11.284;2022-12-18T05:57:56;98907.69;;;-3.91;79.32
15932;BME280;8065;49.520;11.284;2022-12-18T06:00:22;98913.34;;;-4.09;79.50
15932;BME280;8065;49.520;11.284;2022-12-18T06:02:49;98909.38;;;-4.05;79.78
15932;BME280;8065;49.520;11.284;2022-12-18T06:05:15;98908.56;;;-4.06;79.29
15932;BME280;8065;49.520;11.284;2022-12-18T06:07:42;98924.56;;;-4.02;79.36
15932;BME280;8065;49.520;11.284;2022-12-18T06:10:08;98924.13;;;-4.06;79.49
15932;BME280;8065;49.520;11.284;2022-12-18T06:12:35;98932.50;;;-4.10;79.56
15932;BME280;8065;49.520;11.284;2022-12-18T06:15:03;98922.69;;;-3.87;79.31
15932;BME280;8065;49.520;11.284;2022-12-18T06:17:31;98918.25;;;-3.93;79.94
15932;BME280;8065;49.520;11.284;2022-12-18T06:19:57;98913.81;;;-3.99;80.29
15932;BME280;8065;49.520;11.284;2022-12-18T06:22:24;98919.19;;;-4.01;80.90
15932;BME280;8065;49.520;11.284;2022-12-18T06:24:50;98922.69;;;-3.87;78.97
15932;BME280;8065;49.520;11.284;2022-12-18T06:27:17;98933.59;;;-3.70;79.63
15932;BME280;8065;49.520;11.284;2022-12-18T06:29:43;98943.97;;;-3.70;79.25
15932;BME280;8065;49.520;11.284;2022-12-18T06:32:12;98938.69;;;-3.55;79.15
15932;BME280;8065;49.520;11.284;2022-12-18T06:34:38;98940.13;;;-3.40;78.93
15932;BME280;8065;49.520;11.284;2022-12-18T06:37:04;98947.75;;;-3.38;78.21
15932;BME280;8065;49.520;11.284;2022-12-18T06:39:31;98940.94;;;-3.39;78.82
15932;BME280;8065;49.520;11.284;2022-12-18T06:41:57;98933.56;;;-3.36;78.67
15932;BME280;8065;49.520;11.284;2022-12-18T06:44:24;98927.34;;;-3.48;79.39
15932;BME280;8065;49.520;11.284;2022-12-18T06:46:50;98917.59;;;-3.33;79.24
15932;BME280;8065;49.520;11.284;2022-12-18T06:49:18;98922.47;;;-3.57;80.22
15932;BME280;8065;49.520;11.284;2022-12-18T06:51:45;98926.91;;;-3.45;80.53
15932;BME280;8065;49.520;11.284;2022-12-18T06:54:11;98926.91;;;-3.51;80.46
15932;BME280;8065;49.520;11.284;2022-12-18T06:56:38;98935.75;;;-3.39;80.54
15932;BME280;8065;49.520;11.284;2022-12-18T06:59:05;98940.31;;;-3.41;80.95
15932;BME280;8065;49.520;11.284;2022-12-18T07:01:31;98937.34;;;-3.38;80.21
15932;BME280;8065;49.520;11.284;2022-12-18T07:03:58;98926.75;;;-3.37;80.41
15932;BME280;8065;49.520;11.284;2022-12-18T07:06:26;98936.13;;;-3.42;80.98
15932;BME280;8065;49.520;11.284;2022-12-18T07:08:53;98933.00;;;-3.31;80.71
15932;BME280;8065;49.520;11.284;2022-12-18T07:11:21;98936.94;;;-3.42;82.28
15932;BME280;8065;49.520;11.284;2022-12-18T07:13:48;98929.78;;;-3.33;81.60
15932;BME280;8065;49.520;11.284;2022-12-18T07:16:15;98944.22;;;-3.24;81.52
15932;BME280;8065;49.520;11.284;2022-12-18T07:18:42;98946.28;;;-3.13;80.68
15932;BME280;8065;49.520;11.284;2022-12-18T07:21:12;98944.28;;;-3.11;81.11
15932;BME280;8065;49.520;11.284;2022-12-18T07:23:40;98942.22;;;-3.22;81.88
15932;BME280;8065;49.520;11.284;2022-12-18T07:26:09;98940.69;;;-3.10;81.43
15932;BME280;8065;49.520;11.284;2022-12-18T07:28:36;98942.50;;;-3.04;80.64
15932;BME280;8065;49.520;11.284;2022-12-18T07:31:04;98941.47;;;-3.16;80.76
15932;BME280;8065;49.520;11.284;2022-12-18T07:33:31;98942.72;;;-3.05;80.81
15932;BME280;8065;49.520;11.284;2022-12-18T07:35:58;98942.28;;;-3.09;81.02
15932;BME280;8065;49.520;11.284;2022-12-18T07:38:25;98943.69;;;-3.06;81.17
15932;BME280;8065;49.520;11.284;2022-12-18T07:40:52;98947.13;;;-2.99;80.76
15932;BME280;8065;49.520;11.284;2022-12-18T07:43:19;98949.75;;;-2.92;80.43
15932;BME280;8065;49.520;11.284;2022-12-18T07:45:48;98951.59;;;-2.86;80.61
15932;BME280;8065;49.520;11.284;2022-12-18T07:48:15;98952.81;;;-2.76;80.40
15932;BME280;8065;49.520;11.284;2022-12-18T07:50:41;98959.78;;;-2.89;80.68
15932;BME280;8065;49.520;11.284;2022-12-18T07:53:08;98957.66;;;-2.66;80.33
15932;BME280;8065;49.520;11.284;2022-12-18T07:55:34;98955.22;;;-2.74;80.45
15932;BME280;8065;49.520;11.284;2022-12-18T07:58:02;98958.84;;;-2.55;79.82
15932;BME280;8065;49.520;11.284;2022-12-18T08:00:29;98966.47;;;-2.60;80.47
15932;BME280;8065;49.520;11.284;2022-12-18T08:02:56;98972.88;;;-2.50;80.77
15932;BME280;8065;49.520;11.284;2022-12-18T08:05:23;98964.47;;;-2.52;80.42
15932;BME280;8065;49.520;11.284;2022-12-18T08:07:49;98960.09;;;-2.32;80.21
15932;BME280;8065;49.520;11.284;2022-12-18T08:10:16;98967.09;;;-2.39;80.18
15932;BME280;8065;49.520;11.284;2022-12-18T08:12:42;98959.13;;;-2.24;80.49
15932;BME280;8065;49.520;11.284;2022-12-18T08:15:10;98960.09;;;-2.38;81.07
15932;BME280;8065;49.520;11.284;2022-12-18T08:17:37;98961.75;;;-2.04;80.99
15932;BME280;8065;49.520;11.284;2022-12-18T08:20:04;98963.94;;;-2.01;80.43
15932;BME280;8065;49.520;11.284;2022-12-18T08:22:33;98968.97;;;-1.93;79.79
15932;BME280;8065;49.520;11.284;2022-12-18T08:25:03;98972.97;;;-1.77;80.18
15932;BME280;8065;49.520;11.284;2022-12-18T08:27:30;98970.16;;;-1.76;80.08
15932;BME280;8065;49.520;11.284;2022-12-18T08:29:57;98972.94;;;-1.71;80.00
15932;BME280;8065;49.520;11.284;2022-12-18T08:32:26;98983.34;;;-1.51;79.06
15932;BME280;8065;49.520;11.284;2022-12-18T08:34:52;98970.50;;;-1.39;79.51
15932;BME280;8065;49.520;11.284;2022-12-18T08:37:19;98982.91;;;-1.35;78.37
15932;BME280;8065;49.520;11.284;2022-12-18T08:39:45;98985.16;;;-0.80;78.39
15932;BME280;8065;49.520;11.284;2022-12-18T08:42:11;98976.72;;;-0.76;77.00
15932;BME280;8065;49.520;11.284;2022-12-18T08:44:56;98980.72;;;-0.73;76.62
15932;BME280;8065;49.520;11.284;2022-12-18T08:47:22;98975.06;;;-0.70;76.94
15932;BME280;8065;49.520;11.284;2022-12-18T08:49:50;98985.91;;;-0.67;76.41
15932;BME280;8065;49.520;11.284;2022-12-18T08:52:16;98988.75;;;-0.75;75.89
15932;BME280;8065;49.520;11.284;2022-12-18T08:54:43;98982.47;;;-1.05;76.89
15932;BME280;8065;49.520;11.284;2022-12-18T08:57:09;98981.16;;;-0.83;76.99
15932;BME280;8065;49.520;11.284;2022-12-18T08:59:36;98980.66;;;-0.60;76.99
15932;BME280;8065;49.520;11.284;2022-12-18T09:02:02;98971.91;;;-0.41;76.64
15932;BME280;8065;49.520;11.284;2022-12-18T09:04:29;98968.47;;;-0.03;75.64
15932;BME280;8065;49.520;11.284;2022-12-18T09:06:56;98971.09;;;0.40;74.62
15932;BME280;8065;49.520;11.284;2022-12-18T09:09:23;98974.63;;;0.52;73.71
15932;BME280;8065;49.520;11.284;2022-12-18T09:11:49;98969.28;;;0.65;72.69
15932;BME280;8065;49.520;11.284;2022-12-18T09:14:16;98975.50;;;1.01;71.62
15932;BME280;8065;49.520;11.284;2022-12-18T09:16:42;98964.34;;;1.42;71.86
15932;BME280;8065;49.520;11.284;2022-12-18T09:19:09;98964.09;;;1.14;70.67
15932;BME280;8065;49.520;11.284;2022-12-18T09:21:37;98959.13;;;1.24;71.59
15932;BME280;8065;49.520;11.284;2022-12-18T09:24:11;98968.91;;;1.47;70.79
15932;BME280;8065;49.520;11.284;2022-12-18T09:26:38;98968.56;;;1.43;69.53
15932;BME280;8065;49.520;11.284;2022-12-18T09:29:04;98968.31;;;1.75;69.81
15932;BME280;8065;49.520;11.284;2022-12-18T09:31:32;98974.81;;;1.42;69.67
15932;BME280;8065;49.520;11.284;2022-12-18T09:33:59;98962.69;;;2.01;69.66
15932;BME280;8065;49.520;11.284;2022-12-18T09:36:25;98960.78;;;2.32;68.38
15932;BME280;8065;49.520;11.284;2022-12-18T09:38:52;98956.03;;;1.87;68.68
15932;BME280;8065;49.520;11.284;2022-12-18T09:41:37;98954.66;;;1.73;68.83
15932;BME280;8065;49.520;11.284;2022-12-18T09:44:14;98938.16;;;1.84;69.67
15932;BME280;8065;49.520;11.284;2022-12-18T09:46:44;98940.13;;;2.00;67.88
15932;BME280;8065;49.520;11.284;2022-12-18T09:49:14;98937.00;;;1.68;69.18
15932;BME280;8065;49.520;11.284;2022-12-18T09:51:45;98935.41;;;1.79;68.43
15932;BME280;8065;49.520;11.284;2022-12-18T09:54:17;98928.50;;;2.08;68.28
15932;BME280;8065;49.520;11.284;2022-12-18T09:56:45;98936.78;;;1.81;68.86
15932;BME280;8065;49.520;11.284;2022-12-18T09:59:19;98937.69;;;1.87;68.64
15932;BME280;8065;49.520;11.284;2022-12-18T10:01:47;98930.78;;;2.04;68.16
15932;BME280;8065;49.520;11.284;2022-12-18T10:04:13;98925.91;;;1.54;68.55
15932;BME280;8065;49.520;11.284;2022-12-18T10:06:44;98932.41;;;2.28;67.00
15932;BME280;8065;49.520;11.284;2022-12-18T10:09:21;98930.69;;;2.57;67.17
15932;BME280;8065;49.520;11.284;2022-12-18T10:11:57;98921.50;;;2.83;66.50
15932;BME280;8065;49.520;11.284;2022-12-18T10:14:30;98924.56;;;2.80;66.35
15932;BME280;8065;49.520;11.284;2022-12-18T10:17:05;98919.56;;;2.67;66.22
15932;BME280;8065;49.520;11.284;2022-12-18T10:19:40;98922.63;;;2.87;65.11
15932;BME280;8065;49.520;11.284;2022-12-18T10:22:21;98914.75;;;3.27;64.83
15932;BME280;8065;49.520;11.284;2022-12-18T10:24:55;98908.34;;;2.95;64.91
15932;BME280;8065;49.520;11.284;2022-12-18T10:27:28;98912.91;;;3.28;65.11
15932;BME280;8065;49.520;11.284;2022-12-18T10:29:55;98916.66;;;3.32;63.64
15932;BME280;8065;49.520;11.284;2022-12-18T10:32:23;98902.53;;;2.93;65.32
15932;BME280;8065;49.520;11.284;2022-12-18T10:34:55;98905.03;;;3.28;64.19
15932;BME280;8065;49.520;11.284;2022-12-18T10:37:24;98895.22;;;3.69;63.55
15932;BME280;8065;49.520;11.284;2022-12-18T10:40:07;98897.38;;;2.98;64.95
15932;BME280;8065;49.520;11.284;2022-12-18T10:42:37;98903.81;;;3.19;65.53
15932;BME280;8065;49.520;11.284;2022-12-18T10:45:09;98903.16;;;3.57;63.79
15932;BME280;8065;49.520;11.284;2022-12-18T10:47:36;98900.69;;;3.50;63.97
15932;BME280;8065;49.520;11.284;2022-12-18T10:50:19;98902.03;;;3.53;63.68
15932;BME280;8065;49.520;11.284;2022-12-18T10:52:54;98915.69;;;3.67;62.20
15932;BME280;8065;49.520;11.284;2022-12-18T10:55:20;98921.84;;;3.89;63.67
15932;BME280;8065;49.520;11.284;2022-12-18T10:57:49;98929.44;;;3.57;63.52
15932;BME280;8065;49.520;11.284;2022-12-18T11:00:23;98931.19;;;3.23;64.01
15932;BME280;8065;49.520;11.284;2022-12-18T11:02:50;98920.41;;;3.98;61.34
15932;BME280;8065;49.520;11.284;2022-12-18T11:05:25;98922.91;;;3.59;63.10
15932;BME280;8065;49.520;11.284;2022-12-18T11:07:51;98924.25;;;3.17;62.78
15932;BME280;8065;49.520;11.284;2022-12-18T11:10:28;98924.38;;;3.10;62.69
15932;BME280;8065;49.520;11.284;2022-12-18T11:13:08;98921.81;;;3.72;62.05
15932;BME280;8065;49.520;11.284;2022-12-18T11:15:35;98922.47;;;3.06;63.77
15932;BME280;8065;49.520;11.284;2022-12-18T11:18:01;98919.53;;;2.90;64.24
15932;BME280;8065;49.520;11.284;2022-12-18T11:20:31;98920.59;;;3.18;64.41
15932;BME280;8065;49.520;11.284;2022-12-18T11:23:00;98901.66;;;2.76;65.66
15932;BME280;8065;49.520;11.284;2022-12-18T11:25:27;98901.88;;;3.59;63.24
15932;BME280;8065;49.520;11.284;2022-12-18T11:27:56;98907.59;;;2.71;64.00
15932;BME280;8065;49.520;11.284;2022-12-18T11:30:26;98903.97;;;3.01;64.70
15932;BME280;8065;49.520;11.284;2022-12-18T11:32:55;98907.63;;;3.56;62.94
15932;BME280;8065;49.520;11.284;2022-12-18T11:35:33;98901.50;;;3.84;61.44
15932;BME280;8065;49.520;11.284;2022-12-18T11:38:06;98910.47;;;3.38;61.99
15932;BME280;8065;49.520;11.284;2022-12-18T11:40:40;98917.72;;;2.91;64.00
15932;BME280;8065;49.520;11.284;2022-12-18T11:43:13;98910.78;;;2.73;65.07
15932;BME280;8065;49.520;11.284;2022-12-18T11:45:47;98910.50;;;2.58;64.57
15932;BME280;8065;49.520;11.284;2022-12-18T11:50:49;98898.53;;;2.90;63.92
15932;BME280;8065;49.520;11.284;2022-12-18T11:53:17;98900.53;;;3.12;64.81
15932;BME280;8065;49.520;11.284;2022-12-18T11:55:50;98885.72;;;3.51;63.99
15932;BME280;8065;49.520;11.284;2022-12-18T11:58:40;98875.38;;;2.87;63.43
15932;BME280;8065;49.520;11.284;2022-12-18T12:01:16;98864.22;;;3.09;64.41
15932;BME280;8065;49.520;11.284;2022-12-18T12:04:00;98862.59;;;2.91;64.58
15932;BME280;8065;49.520;11.284;2022-12-18T12:06:37;98856.44;;;2.57;65.39
15932;BME280;8065;49.520;11.284;2022-12-18T12:09:11;98861.69;;;2.85;65.52
15932;BME280;8065;49.520;11.284;2022-12-18T12:11:47;98857.47;;;2.44;66.26
15932;BME280;8065;49.520;11.284;2022-12-18T12:14:37;98864.38;;;2.62;65.90
15932;BME280;8065;49.520;11.284;2022-12-18T12:17:13;98857.50;;;2.21;66.90
15932;BME280;8065;49.520;11.284;2022-12-18T12:19:51;98852.84;;;2.63;66.68
15932;BME280;8065;49.520;11.284;2022-12-18T12:22:25;98851.44;;;1.97;67.25
15932;BME280;8065;49.520;11.284;2022-12-18T12:25:07;98852.69;;;1.83;68.32
15932;BME280;8065;49.520;11.284;2022-12-18T12:27:43;98844.16;;;2.22;66.73
15932;BME280;8065;49.520;11.284;2022-12-18T12:30:20;98843.47;;;2.15;67.38
15932;BME280;8065;49.520;11.284;2022-12-18T12:33:00;98840.94;;;1.50;69.31
15932;BME280;8065;49.520;11.284;2022-12-18T12:35:41;98846.56;;;2.24;68.39
15932;BME280;8065;49.520;11.284;2022-12-18T12:38:12;98843.94;;;1.66;68.31
15932;BME280;8065;49.520;11.284;2022-12-18T12:40:44;98846.31;;;2.14;67.54
15932;BME280;8065;49.520;11.284;2022-12-18T12:43:21;98840.16;;;2.32;67.69
15932;BME280;8065;49.520;11.284;2022-12-18T12:45:52;98847.56;;;1.88;68.58
15932;BME280;8065;49.520;11.284;2022-12-18T12:48:34;98843.91;;;2.36;67.60
15932;BME280;8065;49.520;11.284;2022-12-18T12:51:06;98851.44;;;2.20;67.05
15932;BME280;8065;49.520;11.284;2022-12-18T12:53:35;98846.19;;;2.44;67.41
15932;BME280;8065;49.520;11.284;2022-12-18T12:56:04;98845.97;;;2.34;67.99
15932;BME280;8065;49.520;11.284;2022-12-18T12:58:36;98845.88;;;2.17;68.03
15932;BME280;8065;49.520;11.284;2022-12-18T13:01:14;98848.72;;;2.15;68.17
15932;BME280;8065;49.520;11.284;2022-12-18T13:03:52;98847.13;;;2.14;68.41
15932;BME280;8065;49.520;11.284;2022-12-18T13:06:33;98856.47;;;2.34;67.36
15932;BME280;8065;49.520;11.284;2022-12-18T13:09:02;98842.84;;;2.60;66.56
15932;BME280;8065;49.520;11.284;2022-12-18T13:11:32;98839.25;;;2.38;68.04
15932;BME280;8065;49.520;11.284;2022-12-18T13:14:22;98844.28;;;2.04;67.59
15932;BME280;8065;49.520;11.284;2022-12-18T13:16:50;98843.94;;;2.01;68.58
15932;BME280;8065;49.520;11.284;2022-12-18T13:19:23;98835.81;;;2.37;67.81